Aérodrome :
LOGIN :

S'inscrire | Disclaimer

   EN    FR    IT 

 










Légende :    VFR   VFR Marginal   IFR   IFR Intensif   IFR Très Intensif
Visi : 
Plafond : 
>= 8 km
>= 3000ft
5 à 8 km
1000 à 3000 ft
1500m à 5 km
500 à 1000 ft
800 à 1500m
200 à 500 ft
< 800m
< 200 ft
Symboles :   Orages  Brouillard  Fortes neiges  Fortes précipitations  Vent > 20 kt
SIGMETs :   Divers  Orages  Givrage  Turbulence  Onde Orograph.  Cendres Volcan.






- Altitude de l'aérodrome : 286 ft
- Code IATA : FFD


EGVA - RAF Fairford

DERNIER METAR :
  • 171706Z AUTO 00000KT 9999 SCT014 OVC024 07/06 A2989 RMK AO2 CIG 014V024 SLP128 $

METARs EXPIRÉS :
  • 171641Z AUTO 00000KT 9999 BKN017 OVC038 07/06 A2989 RMK AO2 CIG 017V039 BKN V SCT SLP128 $
  • 171636Z AUTO 33003KT 9999 SCT017 OVC038 07/06 A2989 RMK AO2 SLP128 $
  • 171621Z AUTO 33003KT 9999 FEW015 SCT025 OVC039 07/06 A2988 RMK AO2 SLP125 $
  • 171606Z AUTO 00000KT 9999 SCT016 OVC025 07/06 A2988 RMK AO2 CIG 017V025 SLP125 $
  • 171539Z AUTO 00000KT 9999 BKN018 BKN026 OVC034 08/07 A2988 RMK AO2 DZB1459E00RAB00E23DZB23E24 CIG 018V033 BKN018 V SCT SLP124 $
  • 171524Z AUTO 00000KT 9999 FEW005 SCT018 SCT026 OVC032 08/07 A2988 RMK AO2 DZB1459E00RAB00E23DZB23E24 SLP124 $
  • 171505Z AUTO 01003KT 9999 -RA FEW005 OVC032 08/06 A2987 RMK AO2 DZB1459E00RAB00 SLP121 $
  • 171446Z AUTO 00000KT 9999 FEW011 SCT021 OVC033 08/06 A2987 RMK AO2 SLP121 $
  • 171431Z AUTO 01003KT 9999 FEW013 OVC020 08/06 A2987 RMK AO2 SLP121 $

Prévision TAF périmée.



MET'MAP, la Météo Aéronautique d'un coup d'oeil ! - Copyright ORBIFLY Décembre 2007 - Disclaimer

ORBIFLY MET'MAP TEAM :

Programmation & Développement : Alexandra Zaïnal
Conception & Développement : Baudouin d'Aumeries
Co-Programmation & Développement : Marc-Olivier Méhu
Soutien technique & logistique : Manuel Goepfert

Contact : metmap@orbifly.com




SOURCES & CREDITS :

   NOAA